createdAt,value
2016-08-22T00:00:05.476Z,0
2016-08-22T00:01:05.486Z,0
2016-08-22T00:02:05.517Z,0
2016-08-22T00:03:05.546Z,0
2016-08-22T00:04:06.278Z,0
2016-08-22T00:05:06.306Z,0
2016-08-22T00:06:06.319Z,0
2016-08-22T00:07:05.695Z,0
2016-08-22T00:08:05.665Z,0
2016-08-22T00:09:05.688Z,0
2016-08-22T00:10:05.718Z,0
2016-08-22T00:11:05.747Z,0
2016-08-22T00:12:06.472Z,0
2016-08-22T00:13:06.051Z,0
2016-08-22T00:14:05.906Z,0
2016-08-22T00:15:06.068Z,0
2016-08-22T00:16:06.084Z,0
2016-08-22T00:17:06.092Z,0
2016-08-22T00:18:06.090Z,0
2016-08-22T00:19:06.100Z,0
2016-08-22T00:20:06.109Z,0
2016-08-22T00:21:06.117Z,0
2016-08-22T00:22:06.130Z,0
2016-08-22T00:23:06.154Z,0
2016-08-22T00:24:06.174Z,0
2016-08-22T00:25:06.182Z,0
2016-08-22T00:26:06.190Z,0
2016-08-22T00:27:08.264Z,0
2016-08-22T00:28:06.237Z,0
2016-08-22T00:29:06.268Z,0
2016-08-22T00:30:06.988Z,0
2016-08-22T00:31:06.287Z,0
2016-08-22T00:32:06.286Z,0
2016-08-22T00:33:06.292Z,0
2016-08-22T00:34:06.311Z,0
2016-08-22T00:35:06.329Z,0
2016-08-22T00:36:07.073Z,0
2016-08-22T00:37:06.386Z,0
2016-08-22T00:38:06.409Z,0
2016-08-22T00:39:07.140Z,0
2016-08-22T00:40:06.502Z,0
2016-08-22T00:41:07.189Z,0
2016-08-22T00:42:06.511Z,0
2016-08-22T00:43:06.534Z,0
2016-08-22T00:44:06.558Z,0
2016-08-22T00:45:06.583Z,0
2016-08-22T00:46:06.607Z,0
2016-08-22T00:47:06.635Z,0
2016-08-22T00:48:07.377Z,0
2016-08-22T00:49:06.670Z,0
2016-08-22T00:50:07.411Z,0
2016-08-22T00:51:06.738Z,0
2016-08-22T00:52:07.458Z,0
2016-08-22T00:53:06.778Z,0
2016-08-22T00:54:06.806Z,0
2016-08-22T00:55:06.835Z,0
2016-08-22T00:56:06.870Z,0
2016-08-22T00:57:06.878Z,0
2016-08-22T00:58:08.393Z,0
2016-08-22T00:59:07.128Z,0
2016-08-22T01:00:07.138Z,0
2016-08-22T01:01:07.700Z,0
2016-08-22T01:02:07.151Z,0
2016-08-22T01:03:07.160Z,0
2016-08-22T01:04:07.228Z,0
2016-08-22T01:05:07.178Z,0
2016-08-22T01:06:07.201Z,0
2016-08-22T01:07:07.870Z,0
2016-08-22T01:08:07.231Z,0
2016-08-22T01:09:07.244Z,0
2016-08-22T01:10:07.897Z,0
2016-08-22T01:11:07.282Z,0
2016-08-22T01:12:08.859Z,0
2016-08-22T01:13:07.279Z,0
2016-08-22T01:14:07.319Z,0
2016-08-22T01:15:07.517Z,0
2016-08-22T01:16:07.347Z,0
2016-08-22T01:17:08.077Z,0
2016-08-22T01:18:08.134Z,0
2016-08-22T01:19:07.407Z,0
2016-08-22T01:20:07.436Z,0
2016-08-22T01:21:08.164Z,0
2016-08-22T01:22:07.494Z,0
2016-08-22T01:23:07.513Z,0
2016-08-22T01:24:07.551Z,0
2016-08-22T01:25:07.565Z,0
2016-08-22T01:26:07.580Z,0
2016-08-22T01:27:07.607Z,0
2016-08-22T01:28:07.640Z,0
2016-08-22T01:29:09.265Z,0
2016-08-22T01:30:08.406Z,0
2016-08-22T01:31:07.706Z,0
2016-08-22T01:32:07.723Z,0
2016-08-22T01:33:07.757Z,0
2016-08-22T01:34:07.769Z,0
2016-08-22T01:35:07.795Z,0
2016-08-22T01:36:08.578Z,0
2016-08-22T01:37:07.852Z,0
2016-08-22T01:38:07.879Z,0
2016-08-22T01:39:07.910Z,0
2016-08-22T01:40:07.973Z,0
2016-08-22T01:41:07.945Z,0
2016-08-22T01:42:08.683Z,0
2016-08-22T01:43:07.988Z,0
2016-08-22T01:44:08.016Z,0
2016-08-22T01:45:08.058Z,0
2016-08-22T01:46:08.776Z,0
2016-08-22T01:47:08.917Z,0
2016-08-22T01:48:08.114Z,0
2016-08-22T01:49:08.142Z,0
2016-08-22T01:50:08.867Z,0
2016-08-22T01:51:08.893Z,0
2016-08-22T01:52:08.209Z,0
2016-08-22T01:53:08.949Z,0
2016-08-22T01:54:08.267Z,0
2016-08-22T01:55:08.285Z,0
2016-08-22T01:56:09.130Z,0
2016-08-22T01:57:09.256Z,0
2016-08-22T01:58:08.352Z,0
2016-08-22T01:59:08.389Z,0
2016-08-22T02:00:08.404Z,0
2016-08-22T02:01:08.431Z,0
2016-08-22T02:02:08.469Z,0
2016-08-22T02:03:08.473Z,0
2016-08-22T02:04:08.501Z,0
2016-08-22T02:05:08.530Z,0
2016-08-22T02:06:08.561Z,0
2016-08-22T02:07:08.598Z,0
2016-08-22T02:08:08.613Z,0
2016-08-22T02:09:09.326Z,0
2016-08-22T02:10:08.700Z,0
2016-08-22T02:11:08.673Z,0
2016-08-22T02:12:08.700Z,0
2016-08-22T02:13:09.423Z,0
2016-08-22T02:14:08.745Z,0
2016-08-22T02:15:08.901Z,0
2016-08-22T02:16:09.507Z,0
2016-08-22T02:17:09.757Z,0
2016-08-22T02:18:09.081Z,0
2016-08-22T02:19:09.065Z,0
2016-08-22T02:20:10.584Z,0
2016-08-22T02:21:09.099Z,0
2016-08-22T02:22:09.643Z,0
2016-08-22T02:23:09.268Z,0
2016-08-22T02:24:09.692Z,0
2016-08-22T02:25:09.719Z,0
2016-08-22T02:26:09.253Z,0
2016-08-22T02:27:10.067Z,0
2016-08-22T02:28:09.260Z,0
2016-08-22T02:29:09.836Z,0
2016-08-22T02:30:09.209Z,0
2016-08-22T02:31:09.221Z,0
2016-08-22T02:32:09.258Z,0
2016-08-22T02:33:09.934Z,0
2016-08-22T02:34:09.278Z,0
2016-08-22T02:35:09.268Z,0
2016-08-22T02:36:09.988Z,0
2016-08-22T02:37:09.294Z,0
2016-08-22T02:38:09.329Z,0
2016-08-22T02:39:09.346Z,0
2016-08-22T02:40:09.374Z,0
2016-08-22T02:41:09.394Z,0
2016-08-22T02:42:09.433Z,0
2016-08-22T02:43:10.144Z,0
2016-08-22T02:44:09.469Z,0
2016-08-22T02:45:09.490Z,0
2016-08-22T02:46:09.528Z,0
2016-08-22T02:47:09.536Z,0
2016-08-22T02:48:09.578Z,0
2016-08-22T02:49:10.283Z,0
2016-08-22T02:50:09.631Z,0
2016-08-22T02:51:09.628Z,0
2016-08-22T02:52:10.368Z,0
2016-08-22T02:53:09.680Z,0
2016-08-22T02:54:09.735Z,0
2016-08-22T02:55:09.727Z,0
2016-08-22T02:56:09.763Z,0
2016-08-22T02:57:10.484Z,0
2016-08-22T02:58:09.802Z,0
2016-08-22T02:59:09.819Z,0
2016-08-22T03:00:09.854Z,0
2016-08-22T03:01:09.881Z,0
2016-08-22T03:02:10.623Z,0
2016-08-22T03:03:09.921Z,0
2016-08-22T03:04:09.941Z,0
2016-08-22T03:05:09.979Z,0
2016-08-22T03:06:09.992Z,0
2016-08-22T03:07:10.014Z,0
2016-08-22T03:08:10.038Z,0
2016-08-22T03:09:10.061Z,0
2016-08-22T03:10:10.093Z,0
2016-08-22T03:11:10.135Z,0
2016-08-22T03:12:10.132Z,0
2016-08-22T03:13:10.858Z,0
2016-08-22T03:14:10.188Z,0
2016-08-22T03:15:11.114Z,0
2016-08-22T03:16:10.429Z,0
2016-08-22T03:17:10.262Z,0
2016-08-22T03:18:10.281Z,0
2016-08-22T03:19:10.304Z,0
2016-08-22T03:20:10.324Z,0
2016-08-22T03:21:10.348Z,0
2016-08-22T03:22:10.368Z,0
2016-08-22T03:23:10.397Z,0
2016-08-22T03:24:11.125Z,0
2016-08-22T03:25:11.148Z,0
2016-08-22T03:26:11.300Z,0
2016-08-22T03:27:10.498Z,0
2016-08-22T03:28:10.513Z,0
2016-08-22T03:29:10.552Z,0
2016-08-22T03:30:10.560Z,0
2016-08-22T03:31:10.585Z,0
2016-08-22T03:32:10.616Z,0
2016-08-22T03:33:10.638Z,0
2016-08-22T03:34:10.664Z,0
2016-08-22T03:35:10.686Z,0
2016-08-22T03:36:10.704Z,0
2016-08-22T03:37:10.721Z,0
2016-08-22T03:38:10.757Z,0
2016-08-22T03:39:10.777Z,0
2016-08-22T03:40:11.505Z,0
2016-08-22T03:41:10.932Z,0
2016-08-22T03:42:10.964Z,0
2016-08-22T03:43:10.962Z,0
2016-08-22T03:44:11.717Z,0
2016-08-22T03:45:11.632Z,0
2016-08-22T03:46:11.088Z,0
2016-08-22T03:47:11.096Z,0
2016-08-22T03:48:11.119Z,0
2016-08-22T03:49:11.271Z,0
2016-08-22T03:50:11.297Z,0
2016-08-22T03:51:11.258Z,0
2016-08-22T03:52:11.272Z,0
2016-08-22T03:53:11.278Z,0
2016-08-22T03:54:11.997Z,0
2016-08-22T03:55:11.997Z,0
2016-08-22T03:56:11.293Z,0
2016-08-22T03:57:11.303Z,0
2016-08-22T03:58:11.983Z,0
2016-08-22T03:59:11.983Z,0
2016-08-22T04:00:11.285Z,0
2016-08-22T04:01:11.312Z,0
2016-08-22T04:02:11.319Z,0
2016-08-22T04:03:11.351Z,0
2016-08-22T04:04:11.375Z,0
2016-08-22T04:05:11.400Z,0
2016-08-22T04:06:11.425Z,0
2016-08-22T04:07:12.151Z,0
2016-08-22T04:08:11.477Z,0
2016-08-22T04:09:12.919Z,0
2016-08-22T04:10:11.522Z,0
2016-08-22T04:11:11.539Z,0
2016-08-22T04:12:11.575Z,0
2016-08-22T04:13:11.594Z,0
2016-08-22T04:14:13.031Z,0
2016-08-22T04:15:11.645Z,0
2016-08-22T04:16:11.664Z,0
2016-08-22T04:17:11.684Z,0
2016-08-22T04:18:11.706Z,0
2016-08-22T04:19:11.742Z,0
2016-08-22T04:20:11.754Z,0
2016-08-22T04:21:11.775Z,0
2016-08-22T04:22:11.853Z,0
2016-08-22T04:23:11.823Z,0
2016-08-22T04:24:11.842Z,0
2016-08-22T04:25:11.878Z,0
2016-08-22T04:26:11.895Z,0
2016-08-22T04:27:11.914Z,0
2016-08-22T04:28:11.944Z,0
2016-08-22T04:29:11.978Z,0
2016-08-22T04:30:11.996Z,0
2016-08-22T04:31:12.008Z,0
2016-08-22T04:32:12.246Z,0
2016-08-22T04:33:12.063Z,0
2016-08-22T04:34:12.086Z,0
2016-08-22T04:35:12.873Z,0
2016-08-22T04:36:12.134Z,0
2016-08-22T04:37:12.368Z,0
2016-08-22T04:38:12.186Z,0
2016-08-22T04:39:12.200Z,0
2016-08-22T04:40:12.228Z,0
2016-08-22T04:41:12.302Z,0
2016-08-22T04:42:12.983Z,0
2016-08-22T04:43:12.353Z,0
2016-08-22T04:44:12.330Z,0
2016-08-22T04:45:12.352Z,0
2016-08-22T04:46:12.380Z,0
2016-08-22T04:47:12.403Z,0
2016-08-22T04:48:12.416Z,0
2016-08-22T04:49:12.503Z,0
2016-08-22T04:50:12.469Z,0
2016-08-22T04:51:12.487Z,0
2016-08-22T04:52:12.522Z,0
2016-08-22T04:53:13.959Z,0
2016-08-22T04:54:13.471Z,0
2016-08-22T04:55:12.603Z,0
2016-08-22T04:56:12.664Z,0
2016-08-22T04:57:12.632Z,0
2016-08-22T04:58:12.685Z,0
2016-08-22T04:59:13.447Z,5
2016-08-22T05:00:12.709Z,5
2016-08-22T05:01:12.731Z,5
2016-08-22T05:02:12.760Z,5
2016-08-22T05:03:12.827Z,5
2016-08-22T05:04:12.847Z,5
2016-08-22T05:05:12.832Z,5
2016-08-22T05:06:12.846Z,5
2016-08-22T05:07:12.975Z,5
2016-08-22T05:08:12.977Z,5
2016-08-22T05:09:13.015Z,5
2016-08-22T05:10:13.032Z,5
2016-08-22T05:11:13.134Z,5
2016-08-22T05:12:13.157Z,5
2016-08-22T05:13:13.207Z,5
2016-08-22T05:14:13.868Z,5
2016-08-22T05:15:13.368Z,5
2016-08-22T05:16:13.178Z,5
2016-08-22T05:17:13.308Z,5
2016-08-22T05:18:14.051Z,5
2016-08-22T05:19:13.346Z,5
2016-08-22T05:20:14.044Z,5
2016-08-22T05:21:13.348Z,5
2016-08-22T05:22:13.356Z,5
2016-08-22T05:23:13.322Z,5
2016-08-22T05:24:13.382Z,5
2016-08-22T05:25:13.334Z,5
2016-08-22T05:26:13.341Z,5
2016-08-22T05:27:13.359Z,5
2016-08-22T05:28:13.381Z,5
2016-08-22T05:29:13.390Z,5
2016-08-22T05:30:13.429Z,5
2016-08-22T05:31:13.453Z,5
2016-08-22T05:32:13.462Z,5
2016-08-22T05:33:13.493Z,0
2016-08-22T05:34:13.523Z,5
2016-08-22T05:35:13.545Z,5
2016-08-22T05:36:13.785Z,5
2016-08-22T05:37:13.584Z,5
2016-08-22T05:38:13.609Z,5
2016-08-22T05:39:13.638Z,5
2016-08-22T05:40:13.684Z,5
2016-08-22T05:41:13.683Z,10
2016-08-22T05:42:13.704Z,10
2016-08-22T05:43:13.725Z,10
2016-08-22T05:44:14.452Z,10
2016-08-22T05:45:13.822Z,10
2016-08-22T05:46:13.803Z,10
2016-08-22T05:47:13.824Z,10
2016-08-22T05:48:13.890Z,10
2016-08-22T05:49:15.286Z,10
2016-08-22T05:50:13.895Z,10
2016-08-22T05:51:13.964Z,10
2016-08-22T05:52:14.657Z,15
2016-08-22T05:53:14.670Z,10
2016-08-22T05:54:13.986Z,10
2016-08-22T05:55:14.022Z,10
2016-08-22T05:56:14.036Z,10
2016-08-22T05:57:14.078Z,10
2016-08-22T05:58:14.088Z,5
2016-08-22T05:59:14.105Z,5
2016-08-22T06:00:14.133Z,5
2016-08-22T06:01:14.162Z,5
2016-08-22T06:02:14.180Z,5
2016-08-22T06:03:14.905Z,5
2016-08-22T06:04:14.604Z,5
2016-08-22T06:05:14.254Z,5
2016-08-22T06:06:14.279Z,5
2016-08-22T06:07:14.310Z,10
2016-08-22T06:08:14.443Z,10
2016-08-22T06:09:15.083Z,10
2016-08-22T06:10:15.074Z,10
2016-08-22T06:11:14.432Z,10
2016-08-22T06:12:14.429Z,15
2016-08-22T06:13:14.564Z,15
2016-08-22T06:14:14.572Z,15
2016-08-22T06:15:14.605Z,15
2016-08-22T06:16:15.225Z,15
2016-08-22T06:17:14.621Z,15
2016-08-22T06:18:15.318Z,15
2016-08-22T06:19:14.631Z,15
2016-08-22T06:20:14.638Z,15
2016-08-22T06:21:14.648Z,15
2016-08-22T06:22:14.660Z,15
2016-08-22T06:23:14.696Z,15
2016-08-22T06:24:14.707Z,15
2016-08-22T06:25:14.737Z,15
2016-08-22T06:26:14.772Z,15
2016-08-22T06:27:14.781Z,15
2016-08-22T06:28:15.576Z,15
2016-08-22T06:29:14.827Z,15
2016-08-22T06:30:14.860Z,15
2016-08-22T06:31:15.577Z,15
2016-08-22T06:32:14.900Z,15
2016-08-22T06:33:14.951Z,15
2016-08-22T06:34:14.953Z,15
2016-08-22T06:35:14.966Z,15
2016-08-22T06:36:14.997Z,15
2016-08-22T06:37:15.017Z,15
2016-08-22T06:38:15.041Z,15
2016-08-22T06:39:15.123Z,15
2016-08-22T06:40:15.093Z,15
2016-08-22T06:41:15.120Z,15
2016-08-22T06:42:15.149Z,20
2016-08-22T06:43:15.170Z,20
2016-08-22T06:44:15.191Z,20
2016-08-22T06:45:15.227Z,20
2016-08-22T06:46:15.243Z,20
2016-08-22T06:47:15.259Z,20
2016-08-22T06:48:15.286Z,20
2016-08-22T06:49:15.312Z,20
2016-08-22T06:50:15.341Z,20
2016-08-22T06:51:15.366Z,20
2016-08-22T06:52:15.479Z,20
2016-08-22T06:53:15.416Z,20
2016-08-22T06:54:15.483Z,20
2016-08-22T06:55:15.473Z,20
2016-08-22T06:56:15.697Z,20
2016-08-22T06:57:15.506Z,20
2016-08-22T06:58:15.537Z,20
2016-08-22T06:59:15.582Z,20
2016-08-22T07:00:17.058Z,20
2016-08-22T07:01:15.608Z,25
2016-08-22T07:02:15.684Z,25
2016-08-22T07:03:15.649Z,25
2016-08-22T07:04:16.607Z,25
2016-08-22T07:05:15.705Z,25
2016-08-22T07:06:16.621Z,25
2016-08-22T07:07:15.754Z,25
2016-08-22T07:08:15.784Z,25
2016-08-22T07:09:15.805Z,25
2016-08-22T07:10:15.829Z,25
2016-08-22T07:11:15.864Z,25
2016-08-22T07:12:17.509Z,25
2016-08-22T07:13:16.712Z,25
2016-08-22T07:14:15.931Z,25
2016-08-22T07:15:15.949Z,25
2016-08-22T07:16:15.977Z,25
2016-08-22T07:17:16.755Z,25
2016-08-22T07:18:16.021Z,25
2016-08-22T07:19:16.100Z,25
2016-08-22T07:20:16.074Z,25
2016-08-22T07:21:16.155Z,25
2016-08-22T07:22:17.549Z,25
2016-08-22T07:23:16.206Z,25
2016-08-22T07:24:16.180Z,25
2016-08-22T07:25:16.198Z,25
2016-08-22T07:26:16.229Z,25
2016-08-22T07:27:16.251Z,25
2016-08-22T07:28:16.391Z,25
2016-08-22T07:29:17.006Z,25
2016-08-22T07:30:16.417Z,25
2016-08-22T07:31:16.589Z,25
2016-08-22T07:32:17.302Z,25
2016-08-22T07:33:16.603Z,30
2016-08-22T07:34:16.610Z,30
2016-08-22T07:35:16.619Z,30
2016-08-22T07:36:16.627Z,30
2016-08-22T07:37:16.638Z,30
2016-08-22T07:38:16.636Z,30
2016-08-22T07:39:16.687Z,30
2016-08-22T07:40:16.695Z,30
2016-08-22T07:41:16.702Z,30
2016-08-22T07:42:16.761Z,30
2016-08-22T07:43:17.457Z,30
2016-08-22T07:44:16.759Z,30
2016-08-22T07:45:16.789Z,30
2016-08-22T07:46:16.795Z,25
2016-08-22T07:47:16.846Z,25
2016-08-22T07:48:16.880Z,25
2016-08-22T07:49:16.820Z,25
2016-08-22T07:50:17.584Z,25
2016-08-22T07:51:16.860Z,25
2016-08-22T07:52:16.882Z,25
2016-08-22T07:53:16.909Z,25
2016-08-22T07:54:16.931Z,25
2016-08-22T07:55:16.958Z,25
2016-08-22T07:56:16.985Z,25
2016-08-22T07:57:17.011Z,25
2016-08-22T07:58:17.024Z,25
2016-08-22T07:59:17.782Z,25
2016-08-22T08:00:17.833Z,25
2016-08-22T08:01:17.110Z,20
2016-08-22T08:02:17.136Z,20
2016-08-22T08:03:17.160Z,20
2016-08-22T08:04:18.605Z,20
2016-08-22T08:05:17.918Z,15
2016-08-22T08:06:17.243Z,15
2016-08-22T08:07:17.261Z,15
2016-08-22T08:08:17.286Z,15
2016-08-22T08:09:17.318Z,20
2016-08-22T08:10:17.349Z,20
2016-08-22T08:11:18.114Z,20
2016-08-22T08:12:17.404Z,15
2016-08-22T08:13:17.422Z,15
2016-08-22T08:14:17.443Z,15
2016-08-22T08:15:17.484Z,15
2016-08-22T08:16:17.500Z,15
2016-08-22T08:17:17.520Z,10
2016-08-22T08:18:17.553Z,15
2016-08-22T08:19:17.583Z,15
2016-08-22T08:20:17.599Z,15
2016-08-22T08:21:17.625Z,15
2016-08-22T08:22:17.650Z,15
2016-08-22T08:23:17.765Z,15
2016-08-22T08:24:17.777Z,15
2016-08-22T08:25:17.787Z,15
2016-08-22T08:26:17.784Z,15
2016-08-22T08:27:17.870Z,20
2016-08-22T08:28:17.807Z,20
2016-08-22T08:29:17.837Z,25
2016-08-22T08:30:17.867Z,25
2016-08-22T08:31:17.882Z,20
2016-08-22T08:32:17.932Z,20
2016-08-22T08:33:17.960Z,20
2016-08-22T08:34:17.962Z,20
2016-08-22T08:35:18.715Z,15
2016-08-22T08:36:18.019Z,15
2016-08-22T08:37:18.048Z,15
2016-08-22T08:38:18.074Z,15
2016-08-22T08:39:18.102Z,10
2016-08-22T08:40:18.124Z,10
2016-08-22T08:41:18.151Z,15
2016-08-22T08:42:18.233Z,15
2016-08-22T08:43:18.913Z,20
2016-08-22T08:44:18.229Z,25
2016-08-22T08:45:18.255Z,25
2016-08-22T08:46:18.293Z,30
2016-08-22T08:47:19.042Z,30
2016-08-22T08:48:18.335Z,25
2016-08-22T08:49:18.371Z,25
2016-08-22T08:50:19.093Z,30
2016-08-22T08:51:18.417Z,30
2016-08-22T08:52:19.150Z,30
2016-08-22T08:53:18.466Z,30
2016-08-22T08:54:18.499Z,30
2016-08-22T08:55:18.516Z,30
2016-08-22T08:56:18.606Z,25
2016-08-22T08:57:18.568Z,20
2016-08-22T08:58:18.598Z,20
2016-08-22T08:59:18.760Z,20
2016-08-22T09:00:18.647Z,25
2016-08-22T09:01:18.683Z,30
2016-08-22T09:02:18.707Z,30
2016-08-22T09:03:18.735Z,25
2016-08-22T09:04:19.813Z,30
2016-08-22T09:05:18.790Z,35
2016-08-22T09:06:18.806Z,35
2016-08-22T09:07:18.841Z,35
2016-08-22T09:08:18.870Z,30
2016-08-22T09:09:18.889Z,30
2016-08-22T09:10:19.625Z,25
2016-08-22T09:11:18.961Z,25
2016-08-22T09:12:19.024Z,15
2016-08-22T09:13:19.004Z,15
2016-08-22T09:14:19.231Z,20
2016-08-22T09:15:19.065Z,15
2016-08-22T09:16:19.082Z,25
2016-08-22T09:17:19.109Z,15
2016-08-22T09:18:19.136Z,15
2016-08-22T09:19:19.166Z,20
2016-08-22T09:20:19.906Z,20
2016-08-22T09:21:19.422Z,30
2016-08-22T09:22:19.245Z,35
2016-08-22T09:23:19.272Z,30
2016-08-22T09:24:19.410Z,25
2016-08-22T09:25:19.420Z,25
2016-08-22T09:26:19.642Z,40
2016-08-22T09:27:20.083Z,45
2016-08-22T09:28:19.629Z,45
2016-08-22T09:29:20.757Z,40
2016-08-22T09:30:19.643Z,35
2016-08-22T09:31:20.444Z,40
2016-08-22T09:32:19.715Z,40
2016-08-22T09:33:20.319Z,25
2016-08-22T09:34:19.684Z,20
2016-08-22T09:35:19.716Z,20
2016-08-22T09:36:19.834Z,20
2016-08-22T09:37:19.764Z,15
2016-08-22T09:38:19.761Z,25
2016-08-22T09:39:19.785Z,30
2016-08-22T09:40:19.859Z,30
2016-08-22T09:41:19.821Z,30
2016-08-22T09:42:19.834Z,30
2016-08-22T09:43:19.927Z,25
2016-08-22T09:44:19.906Z,20
2016-08-22T09:45:20.075Z,30
2016-08-22T09:46:19.896Z,25
2016-08-22T09:47:19.925Z,30
2016-08-22T09:48:20.711Z,25
2016-08-22T09:49:20.009Z,20
2016-08-22T09:50:20.009Z,20
2016-08-22T09:51:20.794Z,20
2016-08-22T09:52:20.065Z,20
2016-08-22T09:53:20.090Z,20
2016-08-22T09:54:20.443Z,20
2016-08-22T09:55:20.469Z,20
2016-08-22T09:56:20.286Z,20
2016-08-22T09:57:20.301Z,20
2016-08-22T09:58:20.462Z,20
2016-08-22T09:59:20.470Z,20
2016-08-22T10:00:20.405Z,20
2016-08-22T10:01:20.429Z,15
2016-08-22T10:02:21.057Z,25
2016-08-22T10:03:20.502Z,25
2016-08-22T10:04:20.564Z,35
2016-08-22T10:05:20.561Z,30
2016-08-22T10:06:20.561Z,30
2016-08-22T10:07:21.191Z,40
2016-08-22T10:08:20.626Z,45
2016-08-22T10:09:20.686Z,40
2016-08-22T10:10:20.661Z,35
2016-08-22T10:11:20.859Z,30
2016-08-22T10:12:21.332Z,40
2016-08-22T10:13:20.662Z,35
2016-08-22T10:14:20.686Z,45
2016-08-22T10:15:20.726Z,35
2016-08-22T10:16:21.365Z,35
2016-08-22T10:17:20.772Z,45
2016-08-22T10:18:20.860Z,35
2016-08-22T10:19:20.823Z,25
2016-08-22T10:20:20.856Z,15
2016-08-22T10:21:20.887Z,15
2016-08-22T10:22:20.910Z,20
2016-08-22T10:23:20.974Z,20
2016-08-22T10:24:21.019Z,20
2016-08-22T10:25:21.052Z,35
2016-08-22T10:26:21.733Z,40
2016-08-22T10:27:21.052Z,35
2016-08-22T10:28:21.097Z,35
2016-08-22T10:29:21.117Z,35
2016-08-22T10:30:21.141Z,30
2016-08-22T10:31:21.167Z,30
2016-08-22T10:32:21.205Z,40
2016-08-22T10:33:21.933Z,40
2016-08-22T10:34:21.258Z,50
2016-08-22T10:35:21.996Z,40
2016-08-22T10:36:21.320Z,35
2016-08-22T10:37:21.594Z,30
2016-08-22T10:38:21.373Z,25
2016-08-22T10:39:21.404Z,25
2016-08-22T10:40:21.428Z,20
2016-08-22T10:41:21.460Z,25
2016-08-22T10:42:21.492Z,25
2016-08-22T10:43:21.515Z,25
2016-08-22T10:44:22.373Z,25
2016-08-22T10:45:22.502Z,25
2016-08-22T10:46:21.602Z,25
2016-08-22T10:47:21.637Z,25
2016-08-22T10:48:21.662Z,25
2016-08-22T10:49:22.548Z,30
2016-08-22T10:50:21.730Z,35
2016-08-22T10:51:21.745Z,40
2016-08-22T10:52:22.600Z,45
2016-08-22T10:53:21.807Z,35
2016-08-22T10:54:22.050Z,35
2016-08-22T10:55:22.645Z,45
2016-08-22T10:56:21.900Z,55
2016-08-22T10:57:22.723Z,60
2016-08-22T10:58:22.024Z,65
2016-08-22T10:59:21.984Z,60
2016-08-22T11:00:22.726Z,55
2016-08-22T11:01:22.763Z,50
2016-08-22T11:02:22.084Z,50
2016-08-22T11:03:22.813Z,50
2016-08-22T11:04:22.133Z,45
2016-08-22T11:05:23.046Z,35
2016-08-22T11:06:22.285Z,40
2016-08-22T11:07:23.349Z,40
2016-08-22T11:08:22.468Z,40
2016-08-22T11:09:22.481Z,35
2016-08-22T11:10:22.490Z,40
2016-08-22T11:11:23.097Z,50
2016-08-22T11:12:22.516Z,60
2016-08-22T11:13:23.217Z,70
2016-08-22T11:14:23.147Z,65
2016-08-22T11:15:22.658Z,45
2016-08-22T11:16:22.662Z,50
2016-08-22T11:17:22.637Z,55
2016-08-22T11:18:23.270Z,50
2016-08-22T11:19:22.642Z,45
2016-08-22T11:20:22.657Z,35
2016-08-22T11:21:22.662Z,30
2016-08-22T11:22:22.877Z,25
2016-08-22T11:23:23.414Z,25
2016-08-22T11:24:22.939Z,20
2016-08-22T11:25:22.772Z,20
2016-08-22T11:26:23.116Z,20
2016-08-22T11:27:22.828Z,25
2016-08-22T11:28:23.061Z,35
2016-08-22T11:29:22.893Z,40
2016-08-22T11:30:22.919Z,40
2016-08-22T11:31:22.957Z,40
2016-08-22T11:32:22.980Z,35
2016-08-22T11:33:23.013Z,35
2016-08-22T11:34:23.164Z,35
2016-08-22T11:35:23.079Z,30
2016-08-22T11:36:23.106Z,30
2016-08-22T11:37:23.858Z,25
2016-08-22T11:38:23.177Z,25
2016-08-22T11:39:23.199Z,25
2016-08-22T11:40:23.236Z,25
2016-08-22T11:41:23.963Z,30
2016-08-22T11:42:23.510Z,30
2016-08-22T11:43:24.063Z,30
2016-08-22T11:44:23.464Z,35
2016-08-22T11:45:23.634Z,30
2016-08-22T11:46:23.418Z,35
2016-08-22T11:47:24.302Z,40
2016-08-22T11:48:23.472Z,45
2016-08-22T11:49:23.632Z,55
2016-08-22T11:50:23.742Z,55
2016-08-22T11:51:23.785Z,55
2016-08-22T11:52:23.604Z,55
2016-08-22T11:53:23.631Z,55
2016-08-22T11:54:23.660Z,55
2016-08-22T11:55:24.545Z,50
2016-08-22T11:56:23.739Z,40
2016-08-22T11:57:23.765Z,30
2016-08-22T11:58:23.798Z,20
2016-08-22T11:59:24.527Z,15
2016-08-22T12:00:23.967Z,10
2016-08-22T12:01:23.899Z,10
2016-08-22T12:02:24.733Z,15
2016-08-22T12:03:23.959Z,20
2016-08-22T12:04:23.990Z,25
2016-08-22T12:05:24.003Z,35
2016-08-22T12:06:24.119Z,40
2016-08-22T12:07:24.195Z,35
2016-08-22T12:08:24.212Z,30
2016-08-22T12:09:24.142Z,35
2016-08-22T12:10:24.163Z,40
2016-08-22T12:11:24.198Z,30
2016-08-22T12:12:24.252Z,35
2016-08-22T12:13:24.259Z,45
2016-08-22T12:14:25.103Z,50
2016-08-22T12:15:24.549Z,45
2016-08-22T12:16:25.061Z,45
2016-08-22T12:17:24.483Z,40
2016-08-22T12:18:24.414Z,35
2016-08-22T12:19:24.500Z,35
2016-08-22T12:20:24.482Z,30
2016-08-22T12:21:24.542Z,25
2016-08-22T12:22:24.612Z,30
2016-08-22T12:23:25.269Z,30
2016-08-22T12:24:25.329Z,35
2016-08-22T12:25:24.852Z,45
2016-08-22T12:26:24.714Z,45
2016-08-22T12:27:25.985Z,45
2016-08-22T12:28:24.778Z,45
2016-08-22T12:29:24.758Z,50
2016-08-22T12:30:24.966Z,65
2016-08-22T12:31:24.815Z,50
2016-08-22T12:32:24.845Z,35
2016-08-22T12:33:24.884Z,30
2016-08-22T12:34:25.146Z,30
2016-08-22T12:35:24.937Z,50
2016-08-22T12:36:24.971Z,55
2016-08-22T12:37:25.709Z,50
2016-08-22T12:38:25.154Z,50
2016-08-22T12:39:25.816Z,35
2016-08-22T12:40:25.188Z,25
2016-08-22T12:41:25.135Z,25
2016-08-22T12:42:25.151Z,35
2016-08-22T12:43:25.246Z,50
2016-08-22T12:44:25.234Z,45
2016-08-22T12:45:25.521Z,30
2016-08-22T12:46:25.404Z,35
2016-08-22T12:47:25.515Z,20
2016-08-22T12:48:25.435Z,20
2016-08-22T12:49:25.468Z,20
2016-08-22T12:50:25.412Z,25
2016-08-22T12:51:25.550Z,25
2016-08-22T12:52:25.470Z,20
2016-08-22T12:53:26.207Z,15
2016-08-22T12:54:26.291Z,20
2016-08-22T12:55:25.564Z,25
2016-08-22T12:56:25.644Z,45
2016-08-22T12:57:26.522Z,50
2016-08-22T12:58:26.371Z,55
2016-08-22T12:59:25.721Z,60
2016-08-22T13:00:25.713Z,60
2016-08-22T13:01:27.445Z,60
2016-08-22T13:02:26.489Z,55
2016-08-22T13:03:25.815Z,55
2016-08-22T13:04:25.859Z,50
2016-08-22T13:05:25.884Z,45
2016-08-22T13:06:26.096Z,55
2016-08-22T13:07:25.953Z,55
2016-08-22T13:08:26.677Z,50
2016-08-22T13:09:26.125Z,30
2016-08-22T13:10:26.041Z,15
2016-08-22T13:11:27.396Z,15
2016-08-22T13:12:26.103Z,10
2016-08-22T13:13:26.141Z,10
2016-08-22T13:14:26.984Z,10
2016-08-22T13:15:26.392Z,10
2016-08-22T13:16:26.231Z,10
2016-08-22T13:17:26.282Z,20
2016-08-22T13:18:26.302Z,35
2016-08-22T13:19:27.145Z,45
2016-08-22T13:20:26.468Z,50
2016-08-22T13:21:26.434Z,50
2016-08-22T13:22:26.497Z,45
2016-08-22T13:23:26.926Z,35
2016-08-22T13:24:26.497Z,30
2016-08-22T13:25:26.669Z,30
2016-08-22T13:26:27.799Z,30
2016-08-22T13:27:26.577Z,35
2016-08-22T13:28:26.691Z,35
2016-08-22T13:29:26.640Z,40
2016-08-22T13:30:26.663Z,40
2016-08-22T13:31:26.718Z,45
2016-08-22T13:32:26.844Z,45
2016-08-22T13:33:27.509Z,40
2016-08-22T13:34:26.797Z,40
2016-08-22T13:35:26.830Z,40
2016-08-22T13:36:26.860Z,35
2016-08-22T13:37:27.341Z,35
2016-08-22T13:38:27.128Z,30
2016-08-22T13:39:27.151Z,30
2016-08-22T13:40:27.335Z,30
2016-08-22T13:41:27.028Z,20
2016-08-22T13:42:27.168Z,20
2016-08-22T13:43:27.793Z,15
2016-08-22T13:44:27.116Z,15
2016-08-22T13:45:27.149Z,25
2016-08-22T13:46:27.432Z,40
2016-08-22T13:47:27.207Z,45
2016-08-22T13:48:27.350Z,50
2016-08-22T13:49:27.450Z,45
2016-08-22T13:50:27.431Z,40
2016-08-22T13:51:27.448Z,35
2016-08-22T13:52:27.484Z,35
2016-08-22T13:53:27.491Z,35
2016-08-22T13:54:27.514Z,25
2016-08-22T13:55:27.742Z,40
2016-08-22T13:56:27.585Z,40
2016-08-22T13:57:27.532Z,40
2016-08-22T13:58:27.566Z,45
2016-08-22T13:59:27.597Z,45
2016-08-22T14:00:27.634Z,40
2016-08-22T14:01:27.664Z,35
2016-08-22T14:02:29.016Z,35
2016-08-22T14:03:27.754Z,40
2016-08-22T14:04:27.764Z,40
2016-08-22T14:05:27.792Z,40
2016-08-22T14:06:28.112Z,50
2016-08-22T14:07:27.948Z,50
2016-08-22T14:08:29.298Z,55
2016-08-22T14:09:27.923Z,50
2016-08-22T14:10:27.969Z,40
2016-08-22T14:11:27.993Z,40
2016-08-22T14:12:28.025Z,30
2016-08-22T14:13:28.047Z,30
2016-08-22T14:14:28.089Z,40
2016-08-22T14:15:28.176Z,20
2016-08-22T14:16:28.152Z,20
2016-08-22T14:17:28.888Z,40
2016-08-22T14:18:28.228Z,35
2016-08-22T14:19:28.259Z,30
2016-08-22T14:20:28.488Z,35
2016-08-22T14:21:29.019Z,35
2016-08-22T14:22:28.536Z,40
2016-08-22T14:23:28.506Z,25
2016-08-22T14:24:28.554Z,35
2016-08-22T14:25:28.566Z,45
2016-08-22T14:26:28.534Z,45
2016-08-22T14:27:28.516Z,45
2016-08-22T14:28:28.551Z,35